Time;durP1;ratioP1;P1;durP2;ratioP2;P2;SDS_P1;SDS_P2;PMS_P1;PMS_P2;Temp;Humidity;BMP_temperature;BMP_pressure;BME280_temperature;BME280_humidity;BME280_pressure;Samples;Min_cycle;Max_cycle;Signal;HPM_P1;HPM_P2
2023/05/27 00:01:46;;;;;;;16.40;5.45;;;11.60;99.90;;;;;;5062438;28;20036;-59
2023/05/27 00:04:11;;;;;;;22.23;5.13;;;11.70;99.90;;;;;;5051164;28;20789;-58
2023/05/27 00:06:37;;;;;;;22.77;6.00;;;11.70;99.90;;;;;;5058816;28;20116;-58
2023/05/27 00:09:02;;;;;;;23.88;5.90;;;11.70;99.90;;;;;;5057468;28;20036;-57
2023/05/27 00:11:28;;;;;;;22.98;5.43;;;11.60;99.90;;;;;;5057920;28;20033;-57
2023/05/27 00:13:54;;;;;;;23.35;6.18;;;11.60;99.90;;;;;;5059714;28;20047;-57
2023/05/27 00:16:19;;;;;;;14.10;5.20;;;11.50;99.90;;;;;;5053046;28;20036;-57
2023/05/27 00:18:47;;;;;;;27.65;6.38;;;11.40;99.90;;;;;;5053748;28;20041;-58
2023/05/27 00:21:12;;;;;;;23.83;5.50;;;11.40;99.90;;;;;;5052420;28;20040;-57
2023/05/27 00:23:38;;;;;;;22.02;5.22;;;11.40;99.90;;;;;;5059916;28;20601;-57
2023/05/27 00:26:04;;;;;;;21.17;5.15;;;11.30;99.90;;;;;;5052196;28;20254;-57
2023/05/27 00:28:31;;;;;;;23.27;6.10;;;11.40;99.90;;;;;;5056332;28;20033;-57
2023/05/27 00:30:59;;;;;;;18.15;5.50;;;11.30;99.90;;;;;;5020836;28;1038119;-57
2023/05/27 00:33:25;;;;;;;18.17;5.55;;;11.20;99.90;;;;;;5059231;28;20031;-57
2023/05/27 00:35:50;;;;;;;19.00;6.18;;;11.20;99.90;;;;;;5059972;28;20032;-57
2023/05/27 00:38:16;;;;;;;15.60;5.18;;;11.20;99.90;;;;;;5057872;28;20036;-57
2023/05/27 00:40:42;;;;;;;26.42;6.30;;;11.20;99.90;;;;;;5059326;28;20428;-58
2023/05/27 00:43:07;;;;;;;21.55;5.75;;;11.30;99.90;;;;;;5056473;28;20387;-57
2023/05/27 00:45:33;;;;;;;18.33;6.00;;;11.10;99.90;;;;;;5056892;28;20032;-58
2023/05/27 00:48:02;;;;;;;22.20;6.05;;;11.30;99.90;;;;;;5053488;28;20040;-57
2023/05/27 00:50:29;;;;;;;23.23;6.22;;;11.10;99.90;;;;;;5057453;28;20406;-57
2023/05/27 00:52:57;;;;;;;20.67;5.78;;;11.00;99.90;;;;;;5048826;28;20048;-57
2023/05/27 00:55:23;;;;;;;25.50;6.22;;;10.90;99.90;;;;;;5046676;28;20527;-57
2023/05/27 00:57:49;;;;;;;18.95;6.05;;;10.80;99.90;;;;;;5055751;28;20492;-57
2023/05/27 01:00:15;;;;;;;23.88;6.20;;;10.90;99.90;;;;;;5053398;28;20037;-57
2023/05/27 01:02:42;;;;;;;21.63;6.22;;;10.90;99.90;;;;;;5054517;28;20471;-57
2023/05/27 01:05:09;;;;;;;15.80;5.82;;;10.90;99.90;;;;;;5058136;28;20028;-57
2023/05/27 01:07:52;;;;;;;23.92;6.38;;;10.70;99.90;;;;;;5055089;28;20037;-57
2023/05/27 01:10:42;;;;;;;21.58;6.20;;;10.60;99.90;;;;;;5056072;28;20044;-57
2023/05/27 01:13:13;;;;;;;17.52;5.68;;;10.80;99.90;;;;;;5058482;28;20016;-58
2023/05/27 01:15:40;;;;;;;22.55;6.35;;;11.10;99.90;;;;;;5060825;28;20124;-57
2023/05/27 01:18:08;;;;;;;25.00;6.18;;;10.90;99.90;;;;;;5058481;28;20522;-57
2023/05/27 01:20:40;;;;;;;21.33;6.13;;;10.80;99.90;;;;;;5054120;28;20108;-57
2023/05/27 01:23:07;;;;;;;22.88;5.85;;;10.60;99.90;;;;;;5059157;28;20028;-57
2023/05/27 01:25:33;;;;;;;20.45;5.90;;;10.60;99.90;;;;;;5058285;28;20036;-57
2023/05/27 01:27:59;;;;;;;20.63;6.28;;;10.60;99.90;;;;;;5051332;28;20029;-57
2023/05/27 01:30:25;;;;;;;25.23;6.35;;;10.60;99.90;;;;;;5055703;28;20037;-57
2023/05/27 01:32:58;;;;;;;18.67;6.05;;;10.80;99.90;;;;;;5055405;28;20492;-58
2023/05/27 01:35:30;;;;;;;23.90;6.22;;;10.70;99.90;;;;;;5057946;28;20484;-57
2023/05/27 01:37:59;;;;;;;22.63;6.30;;;10.60;99.90;;;;;;5056141;28;20090;-57
2023/05/27 01:40:24;;;;;;;24.00;6.63;;;10.60;99.90;;;;;;5054056;28;20044;-57
2023/05/27 01:42:50;;;;;;;22.13;5.95;;;10.50;99.90;;;;;;5057993;28;20413;-57
2023/05/27 01:45:16;;;;;;;24.75;6.38;;;10.40;99.90;;;;;;5057310;28;20038;-58
2023/05/27 01:47:45;;;;;;;20.73;6.07;;;10.50;99.90;;;;;;5054890;28;20496;-57
2023/05/27 01:50:10;;;;;;;22.02;6.25;;;10.50;99.90;;;;;;5050229;28;20675;-57
2023/05/27 01:52:36;;;;;;;28.33;6.65;;;10.40;99.90;;;;;;5059566;28;20098;-57
2023/05/27 01:55:02;;;;;;;21.40;5.93;;;10.20;99.90;;;;;;5045555;28;20467;-56
2023/05/27 01:57:29;;;;;;;23.52;6.85;;;10.20;99.90;;;;;;5056732;28;20028;-57
2023/05/27 01:59:54;;;;;;;20.65;6.47;;;10.20;99.90;;;;;;5058130;28;20408;-57
2023/05/27 02:02:20;;;;;;;22.67;6.82;;;10.20;99.90;;;;;;5061745;28;20032;-57
2023/05/27 02:04:46;;;;;;;24.60;6.63;;;10.10;99.90;;;;;;5055974;28;20052;-58
2023/05/27 02:07:11;;;;;;;17.98;5.45;;;10.00;99.90;;;;;;5056662;28;20431;-57
2023/05/27 02:09:37;;;;;;;20.85;5.88;;;10.00;99.90;;;;;;5061639;28;20372;-57
2023/05/27 02:12:03;;;;;;;22.63;5.85;;;10.00;99.90;;;;;;5057712;28;20108;-57
2023/05/27 02:14:28;;;;;;;19.45;6.13;;;10.00;99.90;;;;;;5052607;28;20036;-57
2023/05/27 02:16:54;;;;;;;20.20;6.05;;;10.10;99.90;;;;;;5058204;28;20404;-57
2023/05/27 02:19:20;;;;;;;27.55;6.43;;;10.20;99.90;;;;;;5053780;28;20110;-57
2023/05/27 02:21:46;;;;;;;25.63;6.35;;;10.10;99.90;;;;;;5050466;28;20029;-57
2023/05/27 02:24:11;;;;;;;21.02;6.57;;;9.90;99.90;;;;;;5055322;28;20028;-57
2023/05/27 02:26:37;;;;;;;24.20;6.85;;;10.00;99.90;;;;;;5055145;28;20029;-57
2023/05/27 02:29:02;;;;;;;28.25;6.32;;;10.00;99.90;;;;;;5054902;28;20372;-57
2023/05/27 02:31:28;;;;;;;19.88;5.97;;;9.80;99.90;;;;;;5054541;28;20460;-57
2023/05/27 02:33:53;;;;;;;18.38;6.50;;;9.80;99.90;;;;;;5055080;28;20377;-57
2023/05/27 02:36:21;;;;;;;18.55;5.97;;;9.60;99.90;;;;;;5054573;28;20455;-57
2023/05/27 02:38:46;;;;;;;23.17;6.50;;;9.70;99.90;;;;;;5059978;28;20040;-57
2023/05/27 02:41:12;;;;;;;21.05;6.32;;;9.70;99.90;;;;;;5056463;28;20040;-57
2023/05/27 02:43:37;;;;;;;17.88;6.45;;;9.90;99.90;;;;;;5059881;28;20025;-57
2023/05/27 02:46:03;;;;;;;20.70;6.00;;;9.60;99.90;;;;;;5056756;28;20040;-57
2023/05/27 02:48:28;;;;;;;24.02;6.38;;;9.60;99.90;;;;;;5057970;28;20447;-57
2023/05/27 02:50:54;;;;;;;26.27;6.32;;;9.50;99.90;;;;;;5060208;28;20037;-57
2023/05/27 02:53:19;;;;;;;23.35;6.03;;;9.50;99.90;;;;;;5053035;28;20056;-57
2023/05/27 02:55:45;;;;;;;20.63;7.30;;;9.60;99.90;;;;;;5057296;28;20436;-57
2023/05/27 02:58:11;;;;;;;24.45;6.97;;;9.60;99.90;;;;;;5058222;28;20033;-57
2023/05/27 03:00:36;;;;;;;19.40;6.65;;;9.60;99.90;;;;;;5057708;28;20392;-57
2023/05/27 03:03:05;;;;;;;25.48;6.50;;;9.70;99.90;;;;;;5054627;28;20051;-57
2023/05/27 03:05:30;;;;;;;22.58;5.95;;;9.80;99.90;;;;;;5057861;28;20107;-57
2023/05/27 03:07:56;;;;;;;21.83;6.35;;;9.80;99.90;;;;;;5061410;28;20036;-57
2023/05/27 03:10:21;;;;;;;23.52;6.95;;;9.70;99.90;;;;;;5050270;28;20518;-57
2023/05/27 03:12:47;;;;;;;17.15;5.57;;;9.60;99.90;;;;;;5058865;28;20029;-57
2023/05/27 03:15:12;;;;;;;19.20;6.60;;;9.60;99.90;;;;;;5057736;28;20031;-57
2023/05/27 03:17:38;;;;;;;23.00;6.50;;;9.50;99.90;;;;;;5057721;28;20029;-57
2023/05/27 03:20:07;;;;;;;23.92;6.63;;;9.40;99.90;;;;;;5054049;28;20350;-57
2023/05/27 03:22:32;;;;;;;23.00;6.45;;;9.40;99.90;;;;;;5056144;28;20043;-57
2023/05/27 03:24:58;;;;;;;22.45;6.93;;;9.40;99.90;;;;;;5061515;28;20037;-57
2023/05/27 03:27:23;;;;;;;17.75;6.45;;;9.40;99.90;;;;;;5063679;28;20156;-57
2023/05/27 03:29:49;;;;;;;22.48;6.72;;;9.60;99.90;;;;;;5063323;28;20660;-57
2023/05/27 03:32:15;;;;;;;25.27;7.60;;;9.50;99.90;;;;;;5054267;28;20067;-57
2023/05/27 03:34:40;;;;;;;23.20;7.10;;;9.50;99.90;;;;;;5058100;28;20476;-57
2023/05/27 03:37:06;;;;;;;22.50;7.80;;;9.40;99.90;;;;;;5055719;28;20488;-56
2023/05/27 03:39:31;;;;;;;20.73;7.00;;;9.20;99.90;;;;;;5058060;28;20621;-57
2023/05/27 03:41:57;;;;;;;18.50;6.55;;;9.30;99.90;;;;;;5061962;28;20055;-56
2023/05/27 03:44:23;;;;;;;25.33;7.57;;;9.40;99.90;;;;;;5061177;28;20036;-57
2023/05/27 03:46:49;;;;;;;23.02;7.07;;;9.30;99.90;;;;;;5058194;28;20055;-57
2023/05/27 03:49:15;;;;;;;22.92;7.57;;;9.20;99.90;;;;;;5063252;28;20111;-57
2023/05/27 03:51:41;;;;;;;21.80;6.43;;;9.20;99.90;;;;;;5059978;28;20086;-57
2023/05/27 03:54:07;;;;;;;20.67;7.50;;;9.30;99.90;;;;;;5055028;28;20326;-56
2023/05/27 03:56:32;;;;;;;26.73;7.25;;;9.50;99.90;;;;;;5058358;28;20036;-57
2023/05/27 03:58:58;;;;;;;27.92;7.45;;;9.30;99.90;;;;;;5062842;28;20041;-57
2023/05/27 04:01:23;;;;;;;26.45;7.18;;;9.30;99.90;;;;;;5060682;28;20435;-57
2023/05/27 04:03:50;;;;;;;20.77;7.43;;;9.30;99.90;;;;;;5060274;28;20028;-57
2023/05/27 04:06:15;;;;;;;18.77;7.43;;;9.20;99.90;;;;;;5061060;28;20395;-57
2023/05/27 04:08:41;;;;;;;16.13;6.80;;;9.20;99.90;;;;;;5058823;28;20037;-56
2023/05/27 04:11:12;;;;;;;24.83;7.22;;;9.20;99.90;;;;;;5056770;28;20025;-56
2023/05/27 04:13:38;;;;;;;22.38;7.47;;;9.20;99.90;;;;;;5060145;28;20028;-57
2023/05/27 04:16:03;;;;;;;18.85;6.97;;;9.20;99.90;;;;;;5059601;28;20033;-57
2023/05/27 04:18:29;;;;;;;24.10;6.68;;;9.20;99.90;;;;;;5062825;28;20318;-57
2023/05/27 04:20:54;;;;;;;21.50;7.78;;;9.40;99.90;;;;;;5063889;28;20243;-57
2023/05/27 04:23:20;;;;;;;23.63;7.03;;;9.50;99.90;;;;;;5061882;28;20025;-57
2023/05/27 04:25:48;;;;;;;20.63;7.75;;;9.60;99.90;;;;;;5061349;28;20025;-57
2023/05/27 04:28:15;;;;;;;27.95;7.78;;;9.70;99.90;;;;;;5062785;28;20103;-57
2023/05/27 04:30:41;;;;;;;16.98;6.75;;;9.60;99.90;;;;;;5061817;28;20169;-56
2023/05/27 04:33:07;;;;;;;19.13;7.18;;;9.50;99.90;;;;;;5054268;28;20115;-57
2023/05/27 04:35:33;;;;;;;21.17;6.95;;;9.40;99.90;;;;;;5054305;28;20473;-57
2023/05/27 04:38:00;;;;;;;23.05;8.13;;;9.50;99.90;;;;;;5059149;28;20025;-57
2023/05/27 04:40:28;;;;;;;19.17;7.32;;;9.60;99.90;;;;;;5062687;28;20453;-57
2023/05/27 04:42:54;;;;;;;23.88;7.97;;;9.50;99.90;;;;;;5053204;28;20071;-57
2023/05/27 04:45:20;;;;;;;20.05;7.50;;;9.50;99.90;;;;;;5055165;28;20028;-58
2023/05/27 04:47:45;;;;;;;22.10;8.07;;;9.50;99.90;;;;;;5052553;28;20029;-56
2023/05/27 04:50:13;;;;;;;19.73;7.15;;;9.70;99.90;;;;;;5060018;28;20381;-57
2023/05/27 04:52:40;;;;;;;17.42;7.55;;;9.70;99.90;;;;;;5056648;28;20653;-58
2023/05/27 04:55:08;;;;;;;21.83;7.80;;;9.90;99.90;;;;;;5056951;28;20321;-58
2023/05/27 04:57:34;;;;;;;27.50;8.00;;;10.00;99.90;;;;;;5061626;28;20028;-58
2023/05/27 05:02:35;;;;;;;24.55;8.02;;;10.20;99.90;;;;;;5055088;28;20071;-59
2023/05/27 05:05:08;;;;;;;14.32;5.82;;;10.30;99.90;;;;;;5052581;28;20082;-58
2023/05/27 05:07:35;;;;;;;27.03;7.90;;;10.40;99.90;;;;;;5056902;28;20052;-58
2023/05/27 05:10:01;;;;;;;18.63;7.82;;;10.60;99.90;;;;;;5060552;28;20031;-58
2023/05/27 05:12:26;;;;;;;23.55;7.82;;;10.70;99.90;;;;;;5056521;28;20620;-58
2023/05/27 05:14:52;;;;;;;22.27;8.05;;;10.40;99.90;;;;;;5058067;28;20037;-58
2023/05/27 05:17:18;;;;;;;26.80;8.25;;;10.40;99.90;;;;;;5051288;28;20037;-58
2023/05/27 05:19:45;;;;;;;22.52;8.57;;;10.50;99.90;;;;;;5052484;28;20038;-58
2023/05/27 05:22:13;;;;;;;20.35;7.47;;;10.60;99.90;;;;;;5057363;28;20492;-58
2023/05/27 05:24:39;;;;;;;23.85;7.90;;;10.80;99.90;;;;;;5046946;28;20043;-58
2023/05/27 05:27:06;;;;;;;23.23;7.53;;;10.80;99.90;;;;;;5056303;28;20028;-58
2023/05/27 05:29:32;;;;;;;23.23;7.63;;;10.70;99.90;;;;;;5055652;28;20081;-58
2023/05/27 05:31:57;;;;;;;30.40;7.97;;;10.90;99.90;;;;;;5054137;28;20461;-58
2023/05/27 05:34:23;;;;;;;25.63;8.07;;;11.10;99.90;;;;;;5056979;28;20029;-59
2023/05/27 05:36:48;;;;;;;20.20;7.28;;;11.20;99.90;;;;;;5053501;28;20029;-59
2023/05/27 05:39:15;;;;;;;19.80;8.02;;;11.10;99.90;;;;;;5048506;28;20082;-59
2023/05/27 05:41:41;;;;;;;23.45;8.70;;;11.20;99.90;;;;;;5053697;28;20046;-58
2023/05/27 05:44:06;;;;;;;23.90;7.10;;;11.30;99.90;;;;;;5056807;28;20028;-57
2023/05/27 05:46:32;;;;;;;21.70;7.65;;;11.20;99.90;;;;;;5055180;28;20028;-59
2023/05/27 05:48:58;;;;;;;21.10;8.02;;;11.00;99.90;;;;;;5054971;28;20036;-58
2023/05/27 05:51:23;;;;;;;22.88;7.88;;;11.20;99.90;;;;;;5053549;28;20452;-59
2023/05/27 05:53:49;;;;;;;23.33;8.05;;;11.40;99.90;;;;;;5059481;28;20335;-58
2023/05/27 05:56:14;;;;;;;22.50;7.95;;;11.50;99.90;;;;;;5059180;28;20060;-58
2023/05/27 05:58:40;;;;;;;25.10;8.27;;;11.70;99.90;;;;;;5057854;28;20082;-58
2023/05/27 06:01:05;;;;;;;23.20;7.30;;;11.80;99.90;;;;;;5057388;28;20032;-58
2023/05/27 06:03:31;;;;;;;18.38;7.22;;;11.90;99.90;;;;;;5050897;28;20029;-58
2023/05/27 06:05:56;;;;;;;18.05;6.63;;;12.10;99.90;;;;;;5058072;28;20032;-58
2023/05/27 06:08:22;;;;;;;24.10;8.32;;;12.00;99.90;;;;;;5056947;28;20104;-58
2023/05/27 06:10:48;;;;;;;20.92;7.93;;;12.20;99.90;;;;;;5053556;28;20036;-58
2023/05/27 06:13:13;;;;;;;23.88;7.25;;;12.20;99.90;;;;;;5057027;28;20037;-58
2023/05/27 06:15:39;;;;;;;24.08;6.85;;;12.10;99.90;;;;;;5054317;28;20420;-58
2023/05/27 06:18:05;;;;;;;18.85;6.60;;;12.30;99.90;;;;;;5051885;28;20037;-59
2023/05/27 06:20:30;;;;;;;23.88;7.28;;;12.40;99.90;;;;;;5052172;28;20036;-58
2023/05/27 06:22:56;;;;;;;21.70;7.43;;;12.50;99.90;;;;;;5054193;28;20059;-59
2023/05/27 06:25:21;;;;;;;23.38;7.03;;;12.50;99.90;;;;;;5056879;28;20446;-58
2023/05/27 06:27:47;;;;;;;19.90;7.47;;;12.60;99.90;;;;;;5054822;28;20234;-58
2023/05/27 06:30:14;;;;;;;17.75;6.47;;;12.60;99.90;;;;;;5059207;28;20582;-58
2023/05/27 06:32:39;;;;;;;17.88;6.88;;;12.80;99.90;;;;;;5057798;28;20090;-59
2023/05/27 06:35:05;;;;;;;22.50;7.28;;;13.10;99.90;;;;;;5056227;28;20189;-58
2023/05/27 06:37:31;;;;;;;19.08;7.38;;;13.20;99.90;;;;;;5058319;28;20462;-58
2023/05/27 06:39:56;;;;;;;27.60;6.75;;;13.30;99.90;;;;;;5056096;28;20025;-58
2023/05/27 06:42:22;;;;;;;26.13;6.90;;;13.20;99.90;;;;;;5057522;28;20040;-59
2023/05/27 06:44:48;;;;;;;21.80;7.38;;;13.20;99.90;;;;;;5056167;28;20357;-58
2023/05/27 06:47:14;;;;;;;21.33;8.02;;;13.00;99.90;;;;;;5053468;28;20040;-58
2023/05/27 06:49:39;;;;;;;19.70;7.35;;;13.40;99.90;;;;;;5057472;28;20438;-59
2023/05/27 06:52:06;;;;;;;20.58;7.65;;;13.40;99.90;;;;;;5056572;28;20021;-58
2023/05/27 06:54:32;;;;;;;26.58;7.13;;;13.40;99.90;;;;;;5055798;28;20037;-59
2023/05/27 06:56:57;;;;;;;23.45;7.38;;;13.70;99.90;;;;;;5060201;28;20054;-58
2023/05/27 06:59:23;;;;;;;18.25;6.95;;;13.20;99.90;;;;;;5051798;28;20025;-58
2023/05/27 07:01:48;;;;;;;27.30;7.50;;;13.50;99.90;;;;;;5056015;28;20051;-59
2023/05/27 07:04:15;;;;;;;28.60;8.07;;;13.70;99.90;;;;;;5052695;28;20071;-58
2023/05/27 07:06:41;;;;;;;20.92;8.07;;;13.60;99.90;;;;;;5059428;28;20475;-57
2023/05/27 07:09:06;;;;;;;26.85;8.52;;;13.40;99.90;;;;;;5054249;28;20132;-58
2023/05/27 07:11:32;;;;;;;25.13;9.07;;;13.50;99.90;;;;;;5057766;28;20546;-58
2023/05/27 07:13:58;;;;;;;22.90;8.18;;;13.60;99.90;;;;;;5062128;28;20920;-57
2023/05/27 07:16:23;;;;;;;25.00;9.18;;;13.50;99.90;;;;;;5055296;28;20528;-58
2023/05/27 07:18:49;;;;;;;26.75;8.85;;;13.60;99.90;;;;;;5053950;28;20102;-58
2023/05/27 07:21:14;;;;;;;27.75;9.18;;;13.60;99.90;;;;;;5057476;28;20029;-58
2023/05/27 07:23:40;;;;;;;21.55;7.97;;;14.00;99.90;;;;;;5064685;28;20047;-58
2023/05/27 07:26:05;;;;;;;25.73;8.10;;;14.00;99.90;;;;;;5060222;28;20378;-57
2023/05/27 07:28:32;;;;;;;27.33;9.10;;;13.80;99.90;;;;;;5056254;28;20044;-57
2023/05/27 07:30:58;;;;;;;23.33;9.32;;;13.90;99.90;;;;;;5063454;28;20521;-58
2023/05/27 07:33:23;;;;;;;27.45;9.60;;;14.30;99.90;;;;;;5055612;28;20116;-57
2023/05/27 07:35:49;;;;;;;28.95;8.90;;;14.70;99.90;;;;;;5058967;28;20318;-57
2023/05/27 07:38:15;;;;;;;22.95;8.00;;;14.90;99.90;;;;;;5057031;28;20108;-57
2023/05/27 07:40:40;;;;;;;19.58;8.15;;;14.60;99.90;;;;;;5060667;28;20041;-57
2023/05/27 07:43:06;;;;;;;25.80;8.13;;;14.40;99.90;;;;;;5060501;28;20494;-57
2023/05/27 07:45:31;;;;;;;17.52;6.82;;;13.90;99.90;;;;;;5063502;28;20029;-58
2023/05/27 07:47:57;;;;;;;19.90;8.02;;;14.10;99.90;;;;;;5063848;28;20463;-57
2023/05/27 07:50:23;;;;;;;20.65;8.32;;;13.90;99.90;;;;;;5062019;28;20286;-57
2023/05/27 07:52:49;;;;;;;18.52;7.20;;;14.20;99.90;;;;;;5056538;28;20474;-57
2023/05/27 07:55:14;;;;;;;26.08;7.88;;;14.70;99.90;;;;;;5054033;28;20031;-57
2023/05/27 07:57:41;;;;;;;24.17;8.27;;;14.50;99.90;;;;;;5061107;28;20082;-57
2023/05/27 08:00:07;;;;;;;20.48;7.35;;;14.70;99.90;;;;;;5056763;28;20078;-57
2023/05/27 08:02:33;;;;;;;22.88;8.48;;;14.70;99.90;;;;;;5056582;28;20044;-57
2023/05/27 08:04:59;;;;;;;20.13;8.00;;;14.80;99.90;;;;;;5056985;28;20036;-57
2023/05/27 08:07:24;;;;;;;23.63;8.77;;;14.50;99.90;;;;;;5052753;28;20031;-57
2023/05/27 08:09:51;;;;;;;23.13;9.15;;;14.60;99.90;;;;;;5059408;28;20028;-58
2023/05/27 08:12:16;;;;;;;27.58;8.57;;;14.70;99.90;;;;;;5055582;28;20032;-58
2023/05/27 08:14:42;;;;;;;24.60;8.32;;;15.00;99.90;;;;;;5058146;28;20036;-58
2023/05/27 08:17:08;;;;;;;18.98;7.78;;;15.30;99.90;;;;;;5056594;28;20116;-58
2023/05/27 08:19:33;;;;;;;23.45;8.48;;;15.00;99.90;;;;;;5058369;28;20504;-58
2023/05/27 08:21:59;;;;;;;25.17;7.93;;;15.30;99.90;;;;;;5060326;28;20048;-56
2023/05/27 08:24:24;;;;;;;17.92;7.38;;;15.30;99.90;;;;;;5060922;28;20037;-56
2023/05/27 08:26:50;;;;;;;23.60;8.52;;;15.30;99.90;;;;;;5051567;28;20025;-56
2023/05/27 08:29:16;;;;;;;21.42;7.10;;;15.50;99.90;;;;;;5053567;28;20146;-56
2023/05/27 08:31:42;;;;;;;20.67;7.38;;;15.40;99.90;;;;;;5057989;28;20068;-57
2023/05/27 08:34:08;;;;;;;24.33;7.60;;;15.20;99.90;;;;;;5054244;28;20037;-57
2023/05/27 08:36:33;;;;;;;25.60;7.65;;;15.30;99.90;;;;;;5060060;28;20052;-57
2023/05/27 08:39:00;;;;;;;29.70;13.50;;;15.40;99.90;;;;;;5061519;28;20041;-55
2023/05/27 08:41:27;;;;;;;25.15;8.73;;;15.50;99.90;;;;;;5050031;28;20488;-56
2023/05/27 08:43:53;;;;;;;23.10;8.23;;;15.70;99.90;;;;;;5051739;28;20040;-56
2023/05/27 08:46:19;;;;;;;24.40;8.43;;;15.40;99.90;;;;;;5053915;28;20232;-56
2023/05/27 08:48:46;;;;;;;21.77;7.70;;;15.60;99.90;;;;;;5053371;28;20056;-56
2023/05/27 08:51:13;;;;;;;22.55;7.82;;;15.70;99.90;;;;;;5053496;28;20458;-55
2023/05/27 08:53:39;;;;;;;20.17;7.22;;;15.70;99.90;;;;;;5058357;28;20047;-56
2023/05/27 08:56:08;;;;;;;21.55;7.47;;;15.90;99.90;;;;;;5043623;28;20033;-55
2023/05/27 08:58:34;;;;;;;20.70;7.45;;;16.20;99.90;;;;;;5051789;28;20139;-53
2023/05/27 09:01:01;;;;;;;23.52;7.05;;;16.40;99.90;;;;;;5054850;28;20123;-55
2023/05/27 09:03:27;;;;;;;21.48;7.97;;;16.50;99.90;;;;;;5053648;28;20064;-54
2023/05/27 09:05:55;;;;;;;25.42;7.55;;;16.10;99.90;;;;;;5051826;28;20067;-52
2023/05/27 09:08:21;;;;;;;21.35;7.78;;;16.40;99.90;;;;;;5053339;28;20032;-54
2023/05/27 09:10:46;;;;;;;25.10;7.72;;;16.20;99.90;;;;;;5057472;28;20036;-53
2023/05/27 09:13:12;;;;;;;22.95;8.50;;;16.60;99.90;;;;;;5055478;28;20511;-54
2023/05/27 09:15:38;;;;;;;19.65;7.63;;;16.40;99.90;;;;;;5053632;28;20036;-54
2023/05/27 09:18:05;;;;;;;25.60;7.85;;;16.60;99.90;;;;;;5053042;28;20029;-52
2023/05/27 09:20:31;;;;;;;24.13;7.90;;;16.90;99.90;;;;;;5054799;28;20508;-54
2023/05/27 09:23:05;;;;;;;22.67;6.90;;;17.10;99.90;;;;;;5048317;28;20496;-55
2023/05/27 09:25:31;;;;;;;22.13;6.63;;;17.40;99.90;;;;;;5057126;28;20033;-54
2023/05/27 09:27:56;;;;;;;23.23;7.95;;;17.50;99.90;;;;;;5058658;28;20048;-53
2023/05/27 09:30:25;;;;;;;20.80;8.00;;;17.30;99.90;;;;;;5050503;28;20064;-54
2023/05/27 09:32:50;;;;;;;21.08;8.13;;;17.40;99.90;;;;;;5047470;28;20481;-55
2023/05/27 09:35:17;;;;;;;23.70;8.52;;;17.10;99.90;;;;;;5054981;28;20043;-54
2023/05/27 09:37:45;;;;;;;24.85;7.50;;;17.00;99.90;;;;;;5048516;28;20029;-55
2023/05/27 09:40:12;;;;;;;23.23;7.35;;;17.40;99.90;;;;;;5053070;28;20024;-53
2023/05/27 09:42:42;;;;;;;20.80;6.72;;;17.70;99.90;;;;;;5055353;28;20028;-55
2023/05/27 09:45:12;;;;;;;19.13;6.63;;;17.50;99.90;;;;;;5050323;28;20124;-54
2023/05/27 09:47:41;;;;;;;19.60;6.63;;;17.10;99.90;;;;;;5056819;28;20032;-54
2023/05/27 09:50:11;;;;;;;16.88;6.43;;;17.20;99.90;;;;;;5051643;28;20502;-54
2023/05/27 09:52:47;;;;;;;18.33;6.72;;;17.50;99.90;;;;;;5050198;28;20568;-54
2023/05/27 09:55:13;;;;;;;16.70;6.75;;;17.40;99.90;;;;;;5052964;28;20504;-55
2023/05/27 09:57:40;;;;;;;20.17;6.47;;;17.50;99.90;;;;;;5054528;28;20465;-55
2023/05/27 10:00:17;;;;;;;22.23;6.97;;;17.70;99.90;;;;;;5056426;28;20417;-54
2023/05/27 10:02:48;;;;;;;19.15;5.78;;;17.70;99.90;;;;;;5049019;28;20094;-54
2023/05/27 10:05:15;;;;;;;27.77;7.47;;;17.90;99.90;;;;;;5051649;28;20135;-56
2023/05/27 10:07:43;;;;;;;27.58;7.28;;;18.20;99.90;;;;;;5054296;28;20040;-55
2023/05/27 10:10:11;;;;;;;18.08;6.50;;;18.00;99.90;;;;;;5054022;28;20040;-55
2023/05/27 10:12:38;;;;;;;18.65;6.07;;;18.20;99.90;;;;;;5056313;28;20040;-55
2023/05/27 10:15:04;;;;;;;20.33;6.25;;;18.20;99.90;;;;;;5053244;28;20368;-56
2023/05/27 10:17:54;;;;;;;20.48;5.95;;;18.20;99.90;;;;;;5058772;28;20164;-56
2023/05/27 10:20:27;;;;;;;17.33;5.95;;;18.20;99.90;;;;;;5056497;28;21122;-55
2023/05/27 10:22:53;;;;;;;20.75;5.63;;;18.30;99.90;;;;;;5054666;28;20052;-56
2023/05/27 10:25:18;;;;;;;17.40;5.28;;;18.50;99.90;;;;;;5047061;28;20036;-54
2023/05/27 10:27:45;;;;;;;16.13;4.85;;;18.70;99.90;;;;;;5053195;28;20100;-54
2023/05/27 10:30:13;;;;;;;20.25;5.43;;;18.80;99.90;;;;;;5055464;28;20028;-55
2023/05/27 10:32:49;;;;;;;17.15;5.18;;;18.90;99.90;;;;;;5056618;28;20532;-54
2023/05/27 10:35:16;;;;;;;14.98;4.90;;;19.00;99.90;;;;;;5062746;28;20036;-54
2023/05/27 10:37:42;;;;;;;18.70;5.65;;;19.00;99.90;;;;;;5058537;28;20021;-55
2023/05/27 10:40:09;;;;;;;16.52;6.15;;;18.80;99.90;;;;;;5059609;28;20485;-53
2023/05/27 10:42:35;;;;;;;14.25;5.20;;;18.70;99.90;;;;;;5058652;28;20040;-54
2023/05/27 10:45:06;;;;;;;17.42;5.20;;;18.60;99.90;;;;;;5063397;28;20504;-55
2023/05/27 10:47:36;;;;;;;13.75;4.72;;;19.10;99.90;;;;;;5058963;28;20127;-53
2023/05/27 10:50:12;;;;;;;13.15;4.60;;;19.30;99.90;;;;;;5062285;28;20037;-55
2023/05/27 10:52:39;;;;;;;13.30;4.63;;;19.30;99.90;;;;;;5056903;28;20039;-56
2023/05/27 10:55:06;;;;;;;16.45;4.63;;;19.30;99.90;;;;;;5053844;28;20041;-55
2023/05/27 10:57:32;;;;;;;12.48;4.55;;;19.40;99.90;;;;;;5056927;28;20090;-56
2023/05/27 11:00:09;;;;;;;16.02;4.68;;;19.30;99.90;;;;;;5056147;28;20075;-55
2023/05/27 11:02:37;;;;;;;17.23;4.80;;;19.30;99.90;;;;;;5059962;28;20065;-54
2023/05/27 11:05:14;;;;;;;15.07;5.05;;;19.30;99.90;;;;;;5059271;28;20044;-53
2023/05/27 11:07:40;;;;;;;16.10;4.95;;;19.40;99.90;;;;;;5038391;28;20037;-54
2023/05/27 11:10:08;;;;;;;15.57;5.20;;;19.50;99.90;;;;;;5058897;28;20056;-54
2023/05/27 11:12:34;;;;;;;16.52;4.65;;;19.50;99.90;;;;;;5060170;28;20116;-55
2023/05/27 11:15:00;;;;;;;14.32;4.70;;;19.50;99.90;;;;;;5055850;28;20033;-53
2023/05/27 11:17:26;;;;;;;18.75;4.93;;;19.40;99.90;;;;;;5059794;28;20111;-54
2023/05/27 11:19:53;;;;;;;16.60;4.68;;;19.50;99.90;;;;;;5056674;28;20123;-54
2023/05/27 11:22:19;;;;;;;20.75;5.05;;;19.80;99.90;;;;;;5055300;28;20039;-54
2023/05/27 11:24:59;;;;;;;19.95;5.32;;;19.60;99.90;;;;;;5049058;28;20036;-54
2023/05/27 11:27:36;;;;;;;13.80;4.63;;;19.60;99.90;;;;;;5053760;28;20381;-54
2023/05/27 11:30:10;;;;;;;20.65;4.93;;;19.60;99.90;;;;;;5056151;28;20040;-54
2023/05/27 11:32:36;;;;;;;17.90;4.97;;;19.60;99.90;;;;;;5051291;28;20500;-54
2023/05/27 11:35:02;;;;;;;15.30;4.47;;;19.60;99.90;;;;;;5048044;28;20033;-55
2023/05/27 11:37:35;;;;;;;15.25;4.82;;;19.70;99.90;;;;;;5052845;28;20040;-53
2023/05/27 11:40:01;;;;;;;19.97;5.60;;;19.70;99.90;;;;;;5054307;28;20050;-54
2023/05/27 11:42:29;;;;;;;15.20;4.60;;;19.50;99.90;;;;;;5054513;28;20287;-53
2023/05/27 11:44:56;;;;;;;13.30;4.93;;;19.60;99.90;;;;;;5050373;28;20045;-53
2023/05/27 11:47:22;;;;;;;12.20;4.45;;;19.60;99.90;;;;;;5054066;28;20040;-55
2023/05/27 11:49:52;;;;;;;14.85;4.70;;;19.80;99.90;;;;;;5064018;28;20035;-56
2023/05/27 11:52:18;;;;;;;15.80;4.50;;;19.90;99.90;;;;;;5056288;28;20485;-56
2023/05/27 11:54:44;;;;;;;17.90;4.63;;;19.90;99.90;;;;;;5058230;28;20092;-57
2023/05/27 11:57:12;;;;;;;11.77;4.18;;;19.80;99.90;;;;;;5050811;28;20087;-56
2023/05/27 11:59:38;;;;;;;14.27;4.43;;;20.00;99.90;;;;;;5050982;28;20073;-56
2023/05/27 12:02:04;;;;;;;16.02;5.32;;;19.90;99.90;;;;;;5055794;28;20041;-56
2023/05/27 12:04:30;;;;;;;13.27;4.40;;;19.80;99.90;;;;;;5057160;28;20461;-55
2023/05/27 12:06:57;;;;;;;11.93;4.47;;;19.80;99.90;;;;;;5046981;28;20036;-56
2023/05/27 12:09:23;;;;;;;13.88;4.40;;;19.80;99.90;;;;;;5058001;28;20040;-55
2023/05/27 12:11:50;;;;;;;13.00;4.50;;;20.00;99.90;;;;;;5058044;28;20040;-55
2023/05/27 12:14:15;;;;;;;19.67;4.88;;;20.00;99.90;;;;;;5047399;28;20758;-56
2023/05/27 12:16:41;;;;;;;21.45;5.55;;;20.10;99.90;;;;;;5050543;28;20036;-55
2023/05/27 12:19:06;;;;;;;14.82;5.13;;;20.10;99.90;;;;;;5050608;28;20072;-55
2023/05/27 12:21:33;;;;;;;13.98;4.70;;;;;;;;;;5047627;28;20037;-56
2023/05/27 12:23:59;;;;;;;13.73;4.63;;;20.10;99.90;;;;;;5045033;28;20086;-56
2023/05/27 12:26:25;;;;;;;14.43;4.32;;;20.10;99.90;;;;;;5047596;28;20040;-56
2023/05/27 12:28:51;;;;;;;14.00;4.43;;;20.20;99.90;;;;;;5055788;28;20037;-54
2023/05/27 12:31:18;;;;;;;10.80;4.20;;;20.40;98.90;;;;;;5059193;28;20078;-55
2023/05/27 12:33:44;;;;;;;11.85;4.00;;;20.40;99.90;;;;;;5053106;28;20035;-56
2023/05/27 12:36:11;;;;;;;14.05;4.50;;;20.50;99.90;;;;;;5054370;28;20029;-55
2023/05/27 12:38:36;;;;;;;15.70;4.43;;;20.50;99.90;;;;;;5055303;28;20032;-55